Terminal Aerodrome Forecast
Issued by NWS

Home | Current Version | Previous Version | Text Only | Print | Product List | Glossary On
Versions: 1 2 3 4 5 6 7 8 9 10 11 12
959
FTUS43 KLSX 221129
TAFCPS
TAF
KCPS 221129Z 2212/2312 04012G20KT P6SM -SHRA OVC040
      TEMPO 2212/2214 2SM TSRA BKN010CB
     FM221500 02012G22KT P6SM -SHRA OVC025
     FM222000 02014KT P6SM VCSH OVC035
     FM230300 01008KT P6SM OVC070
     FM230700 01008KT P6SM SCT110=

USA.gov is the U.S. government's official web portal to all federal, state and local government web resources and services.